sensor_id;sensor_type;location;lat;lon;timestamp;P1;durP1;ratioP1;P2;durP2;ratioP2
19043;SDS011;9654;52.302;8.120;2023-03-14T00:00:18;5.30;;;2.67;;
19043;SDS011;9654;52.302;8.120;2023-03-14T00:02:45;9.33;;;3.20;;
19043;SDS011;9654;52.302;8.120;2023-03-14T00:05:17;7.43;;;3.07;;
19043;SDS011;9654;52.302;8.120;2023-03-14T00:07:45;11.33;;;3.63;;
19043;SDS011;9654;52.302;8.120;2023-03-14T00:10:12;6.60;;;2.40;;
19043;SDS011;9654;52.302;8.120;2023-03-14T00:12:40;2.80;;;2.07;;
19043;SDS011;9654;52.302;8.120;2023-03-14T00:15:08;6.00;;;2.63;;
19043;SDS011;9654;52.302;8.120;2023-03-14T00:17:36;10.80;;;2.67;;
19043;SDS011;9654;52.302;8.120;2023-03-14T00:20:04;9.20;;;2.90;;
19043;SDS011;9654;52.302;8.120;2023-03-14T00:22:34;8.47;;;2.97;;
19043;SDS011;9654;52.302;8.120;2023-03-14T00:25:03;4.57;;;2.23;;
19043;SDS011;9654;52.302;8.120;2023-03-14T00:27:31;6.13;;;2.10;;
19043;SDS011;9654;52.302;8.120;2023-03-14T00:29:58;7.40;;;2.20;;
19043;SDS011;9654;52.302;8.120;2023-03-14T00:32:25;6.60;;;2.30;;
19043;SDS011;9654;52.302;8.120;2023-03-14T00:34:52;7.23;;;2.33;;
19043;SDS011;9654;52.302;8.120;2023-03-14T00:37:19;8.27;;;2.67;;
19043;SDS011;9654;52.302;8.120;2023-03-14T00:39:45;6.23;;;2.10;;
19043;SDS011;9654;52.302;8.120;2023-03-14T00:42:14;3.23;;;1.83;;
19043;SDS011;9654;52.302;8.120;2023-03-14T00:44:40;7.77;;;2.63;;
19043;SDS011;9654;52.302;8.120;2023-03-14T00:47:07;5.17;;;2.30;;
19043;SDS011;9654;52.302;8.120;2023-03-14T00:49:34;7.83;;;2.10;;
19043;SDS011;9654;52.302;8.120;2023-03-14T00:52:01;4.90;;;2.40;;
19043;SDS011;9654;52.302;8.120;2023-03-14T00:54:27;8.47;;;2.00;;
19043;SDS011;9654;52.302;8.120;2023-03-14T00:56:54;7.43;;;2.10;;
19043;SDS011;9654;52.302;8.120;2023-03-14T00:59:22;7.50;;;2.10;;
19043;SDS011;9654;52.302;8.120;2023-03-14T01:01:49;6.00;;;2.17;;
19043;SDS011;9654;52.302;8.120;2023-03-14T01:04:16;7.07;;;2.10;;
19043;SDS011;9654;52.302;8.120;2023-03-14T01:06:43;7.37;;;1.97;;
19043;SDS011;9654;52.302;8.120;2023-03-14T01:09:10;6.90;;;2.10;;
19043;SDS011;9654;52.302;8.120;2023-03-14T01:11:37;9.37;;;1.97;;
19043;SDS011;9654;52.302;8.120;2023-03-14T01:14:04;12.53;;;2.97;;
19043;SDS011;9654;52.302;8.120;2023-03-14T01:16:33;4.17;;;2.00;;
19043;SDS011;9654;52.302;8.120;2023-03-14T01:19:01;8.60;;;1.93;;
19043;SDS011;9654;52.302;8.120;2023-03-14T01:21:28;6.20;;;2.03;;
19043;SDS011;9654;52.302;8.120;2023-03-14T01:23:57;9.57;;;2.03;;
19043;SDS011;9654;52.302;8.120;2023-03-14T01:26:25;10.10;;;2.70;;
19043;SDS011;9654;52.302;8.120;2023-03-14T01:28:54;8.33;;;2.30;;
19043;SDS011;9654;52.302;8.120;2023-03-14T01:31:21;5.90;;;1.80;;
19043;SDS011;9654;52.302;8.120;2023-03-14T01:33:50;9.43;;;2.10;;
19043;SDS011;9654;52.302;8.120;2023-03-14T01:36:17;6.07;;;2.03;;
19043;SDS011;9654;52.302;8.120;2023-03-14T01:38:44;4.23;;;2.10;;
19043;SDS011;9654;52.302;8.120;2023-03-14T01:41:12;6.43;;;1.80;;
19043;SDS011;9654;52.302;8.120;2023-03-14T01:43:40;5.37;;;2.30;;
19043;SDS011;9654;52.302;8.120;2023-03-14T01:46:17;7.93;;;1.83;;
19043;SDS011;9654;52.302;8.120;2023-03-14T01:48:48;5.03;;;2.47;;
19043;SDS011;9654;52.302;8.120;2023-03-14T01:51:22;4.70;;;1.40;;
19043;SDS011;9654;52.302;8.120;2023-03-14T01:53:53;6.10;;;1.87;;
19043;SDS011;9654;52.302;8.120;2023-03-14T01:56:24;9.60;;;2.47;;
19043;SDS011;9654;52.302;8.120;2023-03-14T01:58:51;6.43;;;2.00;;
19043;SDS011;9654;52.302;8.120;2023-03-14T02:01:19;6.00;;;2.00;;
19043;SDS011;9654;52.302;8.120;2023-03-14T02:03:50;5.87;;;1.93;;
19043;SDS011;9654;52.302;8.120;2023-03-14T02:06:21;7.73;;;2.10;;
19043;SDS011;9654;52.302;8.120;2023-03-14T02:08:51;7.00;;;1.93;;
19043;SDS011;9654;52.302;8.120;2023-03-14T02:11:18;12.37;;;2.70;;
19043;SDS011;9654;52.302;8.120;2023-03-14T02:13:45;6.90;;;1.87;;
19043;SDS011;9654;52.302;8.120;2023-03-14T02:16:13;6.77;;;2.23;;
19043;SDS011;9654;52.302;8.120;2023-03-14T02:18:39;5.00;;;2.17;;
19043;SDS011;9654;52.302;8.120;2023-03-14T02:21:11;7.97;;;2.47;;
19043;SDS011;9654;52.302;8.120;2023-03-14T02:23:47;8.63;;;2.00;;
19043;SDS011;9654;52.302;8.120;2023-03-14T02:26:19;6.27;;;2.13;;
19043;SDS011;9654;52.302;8.120;2023-03-14T02:28:50;8.33;;;3.03;;
19043;SDS011;9654;52.302;8.120;2023-03-14T02:31:19;8.50;;;2.73;;
19043;SDS011;9654;52.302;8.120;2023-03-14T02:33:47;6.50;;;2.47;;
19043;SDS011;9654;52.302;8.120;2023-03-14T02:36:14;8.63;;;2.40;;
19043;SDS011;9654;52.302;8.120;2023-03-14T02:38:50;8.87;;;2.70;;
19043;SDS011;9654;52.302;8.120;2023-03-14T02:41:21;6.23;;;2.13;;
19043;SDS011;9654;52.302;8.120;2023-03-14T02:43:48;6.63;;;2.83;;
19043;SDS011;9654;52.302;8.120;2023-03-14T02:46:15;10.07;;;2.73;;
19043;SDS011;9654;52.302;8.120;2023-03-14T02:48:45;9.73;;;2.73;;
19043;SDS011;9654;52.302;8.120;2023-03-14T02:51:15;6.17;;;2.43;;
19043;SDS011;9654;52.302;8.120;2023-03-14T02:53:42;8.63;;;2.57;;
19043;SDS011;9654;52.302;8.120;2023-03-14T02:56:11;5.07;;;2.20;;
19043;SDS011;9654;52.302;8.120;2023-03-14T02:58:38;7.37;;;2.87;;
19043;SDS011;9654;52.302;8.120;2023-03-14T03:01:05;13.27;;;3.20;;
19043;SDS011;9654;52.302;8.120;2023-03-14T03:03:32;6.20;;;2.57;;
19043;SDS011;9654;52.302;8.120;2023-03-14T03:05:59;9.33;;;2.37;;
19043;SDS011;9654;52.302;8.120;2023-03-14T03:08:26;8.43;;;2.17;;
19043;SDS011;9654;52.302;8.120;2023-03-14T03:10:54;9.87;;;2.63;;
19043;SDS011;9654;52.302;8.120;2023-03-14T03:13:23;9.47;;;2.70;;
19043;SDS011;9654;52.302;8.120;2023-03-14T03:15:51;5.03;;;2.50;;
19043;SDS011;9654;52.302;8.120;2023-03-14T03:18:18;11.17;;;2.33;;
19043;SDS011;9654;52.302;8.120;2023-03-14T03:20:45;11.87;;;2.97;;
19043;SDS011;9654;52.302;8.120;2023-03-14T03:23:12;11.07;;;3.10;;
19043;SDS011;9654;52.302;8.120;2023-03-14T03:25:39;3.40;;;2.43;;
19043;SDS011;9654;52.302;8.120;2023-03-14T03:28:05;7.93;;;2.40;;
19043;SDS011;9654;52.302;8.120;2023-03-14T03:30:35;5.17;;;1.97;;
19043;SDS011;9654;52.302;8.120;2023-03-14T03:33:03;5.87;;;1.93;;
19043;SDS011;9654;52.302;8.120;2023-03-14T03:35:30;6.33;;;2.10;;
19043;SDS011;9654;52.302;8.120;2023-03-14T03:37:57;8.53;;;2.40;;
19043;SDS011;9654;52.302;8.120;2023-03-14T03:40:24;9.57;;;2.10;;
19043;SDS011;9654;52.302;8.120;2023-03-14T03:42:50;7.73;;;2.20;;
19043;SDS011;9654;52.302;8.120;2023-03-14T03:45:17;4.87;;;2.00;;
19043;SDS011;9654;52.302;8.120;2023-03-14T03:47:45;6.50;;;2.23;;
19043;SDS011;9654;52.302;8.120;2023-03-14T03:50:12;5.63;;;2.20;;
19043;SDS011;9654;52.302;8.120;2023-03-14T03:52:39;11.40;;;2.37;;
19043;SDS011;9654;52.302;8.120;2023-03-14T03:55:06;6.63;;;3.37;;
19043;SDS011;9654;52.302;8.120;2023-03-14T03:57:33;10.93;;;3.47;;
19043;SDS011;9654;52.302;8.120;2023-03-14T04:00:00;6.53;;;2.20;;
19043;SDS011;9654;52.302;8.120;2023-03-14T04:02:26;8.00;;;2.30;;
19043;SDS011;9654;52.302;8.120;2023-03-14T04:04:55;9.53;;;2.50;;
19043;SDS011;9654;52.302;8.120;2023-03-14T04:07:21;8.63;;;2.30;;
19043;SDS011;9654;52.302;8.120;2023-03-14T04:09:48;12.50;;;2.83;;
19043;SDS011;9654;52.302;8.120;2023-03-14T04:12:15;5.03;;;1.63;;
19043;SDS011;9654;52.302;8.120;2023-03-14T04:14:41;9.40;;;2.27;;
19043;SDS011;9654;52.302;8.120;2023-03-14T04:17:08;9.47;;;2.27;;
19043;SDS011;9654;52.302;8.120;2023-03-14T04:19:35;3.73;;;1.63;;
19043;SDS011;9654;52.302;8.120;2023-03-14T04:22:03;4.17;;;1.47;;
19043;SDS011;9654;52.302;8.120;2023-03-14T04:24:30;4.93;;;1.80;;
19043;SDS011;9654;52.302;8.120;2023-03-14T04:26:57;6.87;;;1.97;;
19043;SDS011;9654;52.302;8.120;2023-03-14T04:29:23;8.90;;;3.40;;
19043;SDS011;9654;52.302;8.120;2023-03-14T04:31:50;4.83;;;2.33;;
19043;SDS011;9654;52.302;8.120;2023-03-14T04:34:17;9.63;;;2.47;;
19043;SDS011;9654;52.302;8.120;2023-03-14T04:36:44;6.63;;;2.57;;
19043;SDS011;9654;52.302;8.120;2023-03-14T04:39:12;8.07;;;3.97;;
19043;SDS011;9654;52.302;8.120;2023-03-14T04:41:38;10.13;;;3.53;;
19043;SDS011;9654;52.302;8.120;2023-03-14T04:44:05;12.80;;;4.03;;
19043;SDS011;9654;52.302;8.120;2023-03-14T04:46:32;6.07;;;3.17;;
19043;SDS011;9654;52.302;8.120;2023-03-14T04:48:59;9.03;;;4.00;;
19043;SDS011;9654;52.302;8.120;2023-03-14T04:51:25;8.67;;;4.90;;
19043;SDS011;9654;52.302;8.120;2023-03-14T04:53:53;12.20;;;5.00;;
19043;SDS011;9654;52.302;8.120;2023-03-14T04:56:21;10.20;;;4.57;;
19043;SDS011;9654;52.302;8.120;2023-03-14T04:58:48;9.47;;;4.50;;
19043;SDS011;9654;52.302;8.120;2023-03-14T05:01:15;14.80;;;5.93;;
19043;SDS011;9654;52.302;8.120;2023-03-14T05:03:42;9.43;;;4.37;;
19043;SDS011;9654;52.302;8.120;2023-03-14T05:06:09;10.50;;;4.50;;
19043;SDS011;9654;52.302;8.120;2023-03-14T05:08:36;10.93;;;5.23;;
19043;SDS011;9654;52.302;8.120;2023-03-14T05:11:03;9.60;;;5.40;;
19043;SDS011;9654;52.302;8.120;2023-03-14T05:13:31;13.43;;;5.27;;
19043;SDS011;9654;52.302;8.120;2023-03-14T05:16:05;9.67;;;4.50;;
19043;SDS011;9654;52.302;8.120;2023-03-14T05:18:33;14.93;;;4.93;;
19043;SDS011;9654;52.302;8.120;2023-03-14T05:21:00;11.67;;;4.73;;
19043;SDS011;9654;52.302;8.120;2023-03-14T05:23:27;15.00;;;5.80;;
19043;SDS011;9654;52.302;8.120;2023-03-14T05:25:54;14.23;;;5.17;;
19043;SDS011;9654;52.302;8.120;2023-03-14T05:28:20;15.03;;;5.43;;
19043;SDS011;9654;52.302;8.120;2023-03-14T05:30:49;15.70;;;5.43;;
19043;SDS011;9654;52.302;8.120;2023-03-14T05:33:15;12.37;;;5.10;;
19043;SDS011;9654;52.302;8.120;2023-03-14T05:35:42;15.17;;;5.73;;
19043;SDS011;9654;52.302;8.120;2023-03-14T05:38:09;12.83;;;5.47;;
19043;SDS011;9654;52.302;8.120;2023-03-14T05:40:36;10.47;;;5.93;;
19043;SDS011;9654;52.302;8.120;2023-03-14T05:43:03;18.77;;;6.17;;
19043;SDS011;9654;52.302;8.120;2023-03-14T05:45:29;17.53;;;6.67;;
19043;SDS011;9654;52.302;8.120;2023-03-14T05:47:58;12.73;;;4.70;;
19043;SDS011;9654;52.302;8.120;2023-03-14T05:50:24;15.20;;;4.83;;
19043;SDS011;9654;52.302;8.120;2023-03-14T05:52:51;13.63;;;5.07;;
19043;SDS011;9654;52.302;8.120;2023-03-14T05:55:18;11.47;;;4.37;;
19043;SDS011;9654;52.302;8.120;2023-03-14T05:57:45;11.10;;;4.20;;
19043;SDS011;9654;52.302;8.120;2023-03-14T06:00:12;8.40;;;3.90;;
19043;SDS011;9654;52.302;8.120;2023-03-14T06:02:39;8.93;;;4.50;;
19043;SDS011;9654;52.302;8.120;2023-03-14T06:05:08;11.53;;;4.50;;
19043;SDS011;9654;52.302;8.120;2023-03-14T06:07:34;11.63;;;4.67;;
19043;SDS011;9654;52.302;8.120;2023-03-14T06:10:02;7.67;;;4.20;;
19043;SDS011;9654;52.302;8.120;2023-03-14T06:12:29;12.33;;;3.57;;
19043;SDS011;9654;52.302;8.120;2023-03-14T06:14:56;5.67;;;3.60;;
19043;SDS011;9654;52.302;8.120;2023-03-14T06:17:22;14.70;;;3.87;;
19043;SDS011;9654;52.302;8.120;2023-03-14T06:19:49;9.37;;;3.33;;
19043;SDS011;9654;52.302;8.120;2023-03-14T06:22:17;8.33;;;3.60;;
19043;SDS011;9654;52.302;8.120;2023-03-14T06:24:44;9.50;;;3.10;;
19043;SDS011;9654;52.302;8.120;2023-03-14T06:27:11;12.73;;;3.30;;
19043;SDS011;9654;52.302;8.120;2023-03-14T06:29:38;6.00;;;3.07;;
19043;SDS011;9654;52.302;8.120;2023-03-14T06:32:04;9.47;;;2.83;;
19043;SDS011;9654;52.302;8.120;2023-03-14T06:34:31;10.87;;;2.97;;
19043;SDS011;9654;52.302;8.120;2023-03-14T06:36:58;6.47;;;2.63;;
19043;SDS011;9654;52.302;8.120;2023-03-14T06:39:26;9.17;;;2.43;;
19043;SDS011;9654;52.302;8.120;2023-03-14T06:41:53;6.90;;;2.33;;
19043;SDS011;9654;52.302;8.120;2023-03-14T06:44:20;7.13;;;2.40;;
19043;SDS011;9654;52.302;8.120;2023-03-14T06:46:46;5.47;;;2.60;;
19043;SDS011;9654;52.302;8.120;2023-03-14T06:49:13;5.53;;;2.83;;
19043;SDS011;9654;52.302;8.120;2023-03-14T06:51:40;10.53;;;2.43;;
19043;SDS011;9654;52.302;8.120;2023-03-14T06:54:06;7.03;;;2.10;;
19043;SDS011;9654;52.302;8.120;2023-03-14T06:56:35;6.50;;;1.97;;
19043;SDS011;9654;52.302;8.120;2023-03-14T06:59:01;7.00;;;2.17;;
19043;SDS011;9654;52.302;8.120;2023-03-14T07:01:28;8.50;;;1.70;;
19043;SDS011;9654;52.302;8.120;2023-03-14T07:03:57;7.10;;;2.37;;
19043;SDS011;9654;52.302;8.120;2023-03-14T07:06:24;7.70;;;1.90;;
19043;SDS011;9654;52.302;8.120;2023-03-14T07:08:51;2.73;;;1.27;;
19043;SDS011;9654;52.302;8.120;2023-03-14T07:11:18;2.30;;;1.20;;
19043;SDS011;9654;52.302;8.120;2023-03-14T07:13:46;3.40;;;1.23;;
19043;SDS011;9654;52.302;8.120;2023-03-14T07:16:12;5.70;;;1.40;;
19043;SDS011;9654;52.302;8.120;2023-03-14T07:18:39;4.73;;;0.97;;
19043;SDS011;9654;52.302;8.120;2023-03-14T07:21:06;3.43;;;1.20;;
19043;SDS011;9654;52.302;8.120;2023-03-14T07:23:35;1.43;;;1.10;;
19043;SDS011;9654;52.302;8.120;2023-03-14T07:26:01;1.83;;;1.20;;
19043;SDS011;9654;52.302;8.120;2023-03-14T07:28:28;4.63;;;1.33;;
19043;SDS011;9654;52.302;8.120;2023-03-14T07:30:57;2.53;;;1.20;;
19043;SDS011;9654;52.302;8.120;2023-03-14T07:33:24;1.97;;;1.67;;
19043;SDS011;9654;52.302;8.120;2023-03-14T07:35:50;2.93;;;1.43;;
19043;SDS011;9654;52.302;8.120;2023-03-14T07:38:17;5.53;;;2.07;;
19043;SDS011;9654;52.302;8.120;2023-03-14T07:40:46;6.97;;;2.27;;
19043;SDS011;9654;52.302;8.120;2023-03-14T07:43:13;2.53;;;2.00;;
19043;SDS011;9654;52.302;8.120;2023-03-14T07:45:40;2.90;;;2.20;;
19043;SDS011;9654;52.302;8.120;2023-03-14T07:48:08;3.53;;;2.63;;
19043;SDS011;9654;52.302;8.120;2023-03-14T07:50:35;4.27;;;3.47;;
19043;SDS011;9654;52.302;8.120;2023-03-14T07:53:01;9.17;;;5.43;;
19043;SDS011;9654;52.302;8.120;2023-03-14T07:55:28;11.73;;;6.37;;
19043;SDS011;9654;52.302;8.120;2023-03-14T07:57:55;28.60;;;12.10;;
19043;SDS011;9654;52.302;8.120;2023-03-14T08:00:22;33.50;;;16.17;;
19043;SDS011;9654;52.302;8.120;2023-03-14T08:02:48;10.07;;;4.40;;
19043;SDS011;9654;52.302;8.120;2023-03-14T08:05:17;4.40;;;3.90;;
19043;SDS011;9654;52.302;8.120;2023-03-14T08:07:43;7.43;;;4.73;;
19043;SDS011;9654;52.302;8.120;2023-03-14T08:10:10;7.07;;;5.87;;
19043;SDS011;9654;52.302;8.120;2023-03-14T08:12:40;25.27;;;16.47;;
19043;SDS011;9654;52.302;8.120;2023-03-14T08:15:07;16.27;;;12.10;;
19043;SDS011;9654;52.302;8.120;2023-03-14T08:17:35;7.00;;;5.60;;
19043;SDS011;9654;52.302;8.120;2023-03-14T08:20:02;8.30;;;6.00;;
19043;SDS011;9654;52.302;8.120;2023-03-14T08:22:34;41.10;;;22.60;;
19043;SDS011;9654;52.302;8.120;2023-03-14T08:25:01;5.43;;;4.73;;
19043;SDS011;9654;52.302;8.120;2023-03-14T08:27:27;15.97;;;9.60;;
19043;SDS011;9654;52.302;8.120;2023-03-14T08:29:54;5.20;;;4.70;;
19043;SDS011;9654;52.302;8.120;2023-03-14T08:32:21;9.00;;;6.80;;
19043;SDS011;9654;52.302;8.120;2023-03-14T08:34:48;4.80;;;4.40;;
19043;SDS011;9654;52.302;8.120;2023-03-14T08:37:15;5.67;;;5.07;;
19043;SDS011;9654;52.302;8.120;2023-03-14T08:39:45;6.37;;;5.77;;
19043;SDS011;9654;52.302;8.120;2023-03-14T08:42:12;8.10;;;7.30;;
19043;SDS011;9654;52.302;8.120;2023-03-14T08:44:39;6.87;;;6.27;;
19043;SDS011;9654;52.302;8.120;2023-03-14T08:47:06;9.10;;;8.17;;
19043;SDS011;9654;52.302;8.120;2023-03-14T08:49:34;11.17;;;6.33;;
19043;SDS011;9654;52.302;8.120;2023-03-14T08:52:01;13.60;;;10.80;;
19043;SDS011;9654;52.302;8.120;2023-03-14T08:54:28;17.67;;;13.57;;
19043;SDS011;9654;52.302;8.120;2023-03-14T08:56:56;28.63;;;18.67;;
19043;SDS011;9654;52.302;8.120;2023-03-14T08:59:23;8.77;;;7.87;;
19043;SDS011;9654;52.302;8.120;2023-03-14T09:01:50;8.17;;;7.00;;
19043;SDS011;9654;52.302;8.120;2023-03-14T09:04:17;6.97;;;6.27;;
19043;SDS011;9654;52.302;8.120;2023-03-14T09:06:44;6.70;;;6.03;;
19043;SDS011;9654;52.302;8.120;2023-03-14T09:09:10;6.83;;;6.07;;
19043;SDS011;9654;52.302;8.120;2023-03-14T09:11:38;6.37;;;5.77;;
19043;SDS011;9654;52.302;8.120;2023-03-14T09:14:06;7.30;;;6.60;;
19043;SDS011;9654;52.302;8.120;2023-03-14T09:16:33;5.57;;;5.03;;
19043;SDS011;9654;52.302;8.120;2023-03-14T09:19:00;7.60;;;5.20;;
19043;SDS011;9654;52.302;8.120;2023-03-14T09:21:27;6.03;;;5.40;;
19043;SDS011;9654;52.302;8.120;2023-03-14T09:23:54;5.77;;;5.20;;
19043;SDS011;9654;52.302;8.120;2023-03-14T09:26:20;6.23;;;4.53;;
19043;SDS011;9654;52.302;8.120;2023-03-14T09:28:47;6.87;;;3.63;;
19043;SDS011;9654;52.302;8.120;2023-03-14T09:31:15;3.27;;;2.90;;
19043;SDS011;9654;52.302;8.120;2023-03-14T09:33:42;1.67;;;1.57;;
19043;SDS011;9654;52.302;8.120;2023-03-14T09:36:09;1.27;;;1.10;;
19043;SDS011;9654;52.302;8.120;2023-03-14T09:38:37;2.47;;;1.00;;
19043;SDS011;9654;52.302;8.120;2023-03-14T09:41:10;0.80;;;0.80;;
19043;SDS011;9654;52.302;8.120;2023-03-14T09:43:40;1.97;;;0.60;;
19043;SDS011;9654;52.302;8.120;2023-03-14T09:46:09;0.40;;;0.40;;
19043;SDS011;9654;52.302;8.120;2023-03-14T09:48:42;2.57;;;0.40;;
19043;SDS011;9654;52.302;8.120;2023-03-14T09:51:11;0.73;;;0.30;;
19043;SDS011;9654;52.302;8.120;2023-03-14T09:53:41;0.23;;;0.23;;
19043;SDS011;9654;52.302;8.120;2023-03-14T09:56:11;2.23;;;0.50;;
19043;SDS011;9654;52.302;8.120;2023-03-14T09:58:40;2.47;;;0.47;;
19043;SDS011;9654;52.302;8.120;2023-03-14T10:01:10;1.90;;;0.80;;
19043;SDS011;9654;52.302;8.120;2023-03-14T10:03:39;2.03;;;0.67;;
19043;SDS011;9654;52.302;8.120;2023-03-14T10:06:11;0.83;;;0.53;;
19043;SDS011;9654;52.302;8.120;2023-03-14T10:08:39;1.57;;;0.83;;
19043;SDS011;9654;52.302;8.120;2023-03-14T10:11:14;2.23;;;0.57;;
19043;SDS011;9654;52.302;8.120;2023-03-14T10:13:49;2.20;;;0.63;;
19043;SDS011;9654;52.302;8.120;2023-03-14T10:16:29;1.57;;;0.50;;
19043;SDS011;9654;52.302;8.120;2023-03-14T10:19:02;0.47;;;0.47;;
19043;SDS011;9654;52.302;8.120;2023-03-14T10:21:35;0.57;;;0.47;;
19043;SDS011;9654;52.302;8.120;2023-03-14T10:24:19;1.27;;;0.50;;
19043;SDS011;9654;52.302;8.120;2023-03-14T10:26:47;1.03;;;0.50;;
19043;SDS011;9654;52.302;8.120;2023-03-14T10:29:16;4.13;;;0.77;;
19043;SDS011;9654;52.302;8.120;2023-03-14T10:31:47;5.00;;;0.90;;
19043;SDS011;9654;52.302;8.120;2023-03-14T10:34:23;0.10;;;0.10;;
19043;SDS011;9654;52.302;8.120;2023-03-14T10:36:54;0.57;;;0.30;;
19043;SDS011;9654;52.302;8.120;2023-03-14T10:42:13;0.07;;;0.07;;
19043;SDS011;9654;52.302;8.120;2023-03-14T10:44:45;1.13;;;0.30;;
19043;SDS011;9654;52.302;8.120;2023-03-14T10:47:24;2.50;;;1.10;;
19043;SDS011;9654;52.302;8.120;2023-03-14T10:49:54;1.80;;;0.10;;
19043;SDS011;9654;52.302;8.120;2023-03-14T10:52:22;0.30;;;0.30;;
19043;SDS011;9654;52.302;8.120;2023-03-14T10:54:54;0.40;;;0.10;;
19043;SDS011;9654;52.302;8.120;2023-03-14T10:57:23;0.80;;;0.40;;
19043;SDS011;9654;52.302;8.120;2023-03-14T10:59:51;0.77;;;0.20;;
19043;SDS011;9654;52.302;8.120;2023-03-14T11:02:27;0.30;;;0.30;;
19043;SDS011;9654;52.302;8.120;2023-03-14T11:05:15;0.23;;;0.20;;
19043;SDS011;9654;52.302;8.120;2023-03-14T11:07:50;0.23;;;0.23;;
19043;SDS011;9654;52.302;8.120;2023-03-14T11:10:23;1.77;;;0.30;;
19043;SDS011;9654;52.302;8.120;2023-03-14T11:12:57;0.63;;;0.30;;
19043;SDS011;9654;52.302;8.120;2023-03-14T11:15:34;0.30;;;0.30;;
19043;SDS011;9654;52.302;8.120;2023-03-14T11:21:26;3.60;;;0.70;;
19043;SDS011;9654;52.302;8.120;2023-03-14T11:24:01;4.07;;;1.17;;
19043;SDS011;9654;52.302;8.120;2023-03-14T11:26:48;2.30;;;0.97;;
19043;SDS011;9654;52.302;8.120;2023-03-14T11:29:24;3.17;;;1.07;;
19043;SDS011;9654;52.302;8.120;2023-03-14T11:31:59;7.27;;;1.00;;
19043;SDS011;9654;52.302;8.120;2023-03-14T11:34:32;7.33;;;1.20;;
19043;SDS011;9654;52.302;8.120;2023-03-14T11:37:06;6.57;;;1.67;;
19043;SDS011;9654;52.302;8.120;2023-03-14T11:39:41;6.33;;;1.10;;
19043;SDS011;9654;52.302;8.120;2023-03-14T11:42:11;5.40;;;1.43;;
19043;SDS011;9654;52.302;8.120;2023-03-14T11:44:42;4.37;;;1.00;;
19043;SDS011;9654;52.302;8.120;2023-03-14T11:47:13;7.13;;;1.30;;
19043;SDS011;9654;52.302;8.120;2023-03-14T11:49:46;4.23;;;1.50;;
19043;SDS011;9654;52.302;8.120;2023-03-14T11:52:19;7.23;;;2.00;;
19043;SDS011;9654;52.302;8.120;2023-03-14T11:54:49;2.87;;;1.20;;
19043;SDS011;9654;52.302;8.120;2023-03-14T11:57:21;6.33;;;1.43;;
19043;SDS011;9654;52.302;8.120;2023-03-14T11:59:50;7.87;;;1.40;;
19043;SDS011;9654;52.302;8.120;2023-03-14T12:02:22;9.00;;;1.67;;
19043;SDS011;9654;52.302;8.120;2023-03-14T12:11:04;8.97;;;1.93;;
19043;SDS011;9654;52.302;8.120;2023-03-14T12:13:39;10.70;;;1.90;;
19043;SDS011;9654;52.302;8.120;2023-03-14T12:16:07;34.80;;;3.17;;
19043;SDS011;9654;52.302;8.120;2023-03-14T12:18:46;12.07;;;2.73;;
19043;SDS011;9654;52.302;8.120;2023-03-14T12:21:13;11.23;;;1.70;;
19043;SDS011;9654;52.302;8.120;2023-03-14T12:23:42;7.87;;;2.17;;
19043;SDS011;9654;52.302;8.120;2023-03-14T12:26:13;10.87;;;2.27;;
19043;SDS011;9654;52.302;8.120;2023-03-14T12:28:43;14.97;;;1.97;;
19043;SDS011;9654;52.302;8.120;2023-03-14T12:34:28;16.47;;;3.33;;
19043;SDS011;9654;52.302;8.120;2023-03-14T12:36:58;12.87;;;2.30;;
19043;SDS011;9654;52.302;8.120;2023-03-14T12:39:44;19.27;;;3.23;;
19043;SDS011;9654;52.302;8.120;2023-03-14T12:42:28;14.37;;;2.27;;
19043;SDS011;9654;52.302;8.120;2023-03-14T12:45:14;22.73;;;3.50;;
19043;SDS011;9654;52.302;8.120;2023-03-14T12:47:52;11.77;;;2.60;;
19043;SDS011;9654;52.302;8.120;2023-03-14T12:50:24;13.80;;;3.83;;
19043;SDS011;9654;52.302;8.120;2023-03-14T12:56:18;18.27;;;3.33;;
19043;SDS011;9654;52.302;8.120;2023-03-14T12:59:01;15.30;;;3.20;;
19043;SDS011;9654;52.302;8.120;2023-03-14T13:01:40;26.83;;;4.27;;
19043;SDS011;9654;52.302;8.120;2023-03-14T13:04:13;17.87;;;2.87;;
19043;SDS011;9654;52.302;8.120;2023-03-14T13:06:48;15.53;;;2.83;;
19043;SDS011;9654;52.302;8.120;2023-03-14T13:12:36;12.33;;;2.60;;
19043;SDS011;9654;52.302;8.120;2023-03-14T13:15:14;19.90;;;3.80;;
19043;SDS011;9654;52.302;8.120;2023-03-14T13:17:44;14.87;;;2.67;;
19043;SDS011;9654;52.302;8.120;2023-03-14T13:20:15;13.57;;;3.83;;
19043;SDS011;9654;52.302;8.120;2023-03-14T13:22:46;18.17;;;3.70;;
19043;SDS011;9654;52.302;8.120;2023-03-14T13:25:15;9.77;;;2.57;;
19043;SDS011;9654;52.302;8.120;2023-03-14T13:27:44;10.67;;;2.40;;
19043;SDS011;9654;52.302;8.120;2023-03-14T13:30:13;11.13;;;2.40;;
19043;SDS011;9654;52.302;8.120;2023-03-14T13:32:42;16.63;;;2.93;;
19043;SDS011;9654;52.302;8.120;2023-03-14T13:35:15;9.80;;;2.93;;
19043;SDS011;9654;52.302;8.120;2023-03-14T13:37:51;14.67;;;2.70;;
19043;SDS011;9654;52.302;8.120;2023-03-14T13:40:20;17.33;;;2.20;;
19043;SDS011;9654;52.302;8.120;2023-03-14T13:42:59;10.73;;;2.40;;
19043;SDS011;9654;52.302;8.120;2023-03-14T13:45:29;13.30;;;2.23;;
19043;SDS011;9654;52.302;8.120;2023-03-14T13:47:55;8.87;;;2.10;;
19043;SDS011;9654;52.302;8.120;2023-03-14T13:50:22;12.07;;;1.90;;
19043;SDS011;9654;52.302;8.120;2023-03-14T13:52:54;9.30;;;2.60;;
19043;SDS011;9654;52.302;8.120;2023-03-14T13:55:22;12.37;;;1.83;;
19043;SDS011;9654;52.302;8.120;2023-03-14T13:57:49;7.17;;;1.70;;
19043;SDS011;9654;52.302;8.120;2023-03-14T14:00:21;11.33;;;2.03;;
19043;SDS011;9654;52.302;8.120;2023-03-14T14:02:51;10.27;;;1.73;;
19043;SDS011;9654;52.302;8.120;2023-03-14T14:05:19;17.50;;;2.20;;
19043;SDS011;9654;52.302;8.120;2023-03-14T14:07:48;6.63;;;1.60;;
19043;SDS011;9654;52.302;8.120;2023-03-14T14:10:15;9.57;;;2.23;;
19043;SDS011;9654;52.302;8.120;2023-03-14T14:12:43;9.67;;;2.00;;
19043;SDS011;9654;52.302;8.120;2023-03-14T14:15:15;16.20;;;2.53;;
19043;SDS011;9654;52.302;8.120;2023-03-14T14:17:48;5.43;;;1.60;;
19043;SDS011;9654;52.302;8.120;2023-03-14T14:20:20;11.63;;;2.33;;
19043;SDS011;9654;52.302;8.120;2023-03-14T14:22:49;11.47;;;2.33;;
19043;SDS011;9654;52.302;8.120;2023-03-14T14:25:16;8.80;;;1.80;;
19043;SDS011;9654;52.302;8.120;2023-03-14T14:27:44;10.57;;;1.63;;
19043;SDS011;9654;52.302;8.120;2023-03-14T14:30:29;4.60;;;1.10;;
19043;SDS011;9654;52.302;8.120;2023-03-14T14:33:17;7.80;;;1.40;;
19043;SDS011;9654;52.302;8.120;2023-03-14T14:35:49;5.13;;;1.37;;
19043;SDS011;9654;52.302;8.120;2023-03-14T14:38:19;5.97;;;1.70;;
19043;SDS011;9654;52.302;8.120;2023-03-14T14:40:47;5.97;;;1.30;;
19043;SDS011;9654;52.302;8.120;2023-03-14T14:43:17;10.37;;;2.53;;
19043;SDS011;9654;52.302;8.120;2023-03-14T14:45:48;7.67;;;1.50;;
19043;SDS011;9654;52.302;8.120;2023-03-14T14:48:19;6.10;;;1.17;;
19043;SDS011;9654;52.302;8.120;2023-03-14T14:50:49;8.33;;;1.07;;
19043;SDS011;9654;52.302;8.120;2023-03-14T14:53:23;6.70;;;1.37;;
19043;SDS011;9654;52.302;8.120;2023-03-14T14:55:53;11.47;;;2.13;;
19043;SDS011;9654;52.302;8.120;2023-03-14T14:58:22;9.17;;;1.17;;
19043;SDS011;9654;52.302;8.120;2023-03-14T15:00:52;7.27;;;1.50;;
19043;SDS011;9654;52.302;8.120;2023-03-14T15:03:23;8.00;;;1.53;;
19043;SDS011;9654;52.302;8.120;2023-03-14T15:05:54;7.17;;;1.33;;
19043;SDS011;9654;52.302;8.120;2023-03-14T15:10:49;8.70;;;1.90;;
19043;SDS011;9654;52.302;8.120;2023-03-14T15:13:15;9.37;;;1.50;;
19043;SDS011;9654;52.302;8.120;2023-03-14T15:15:42;7.77;;;1.67;;
19043;SDS011;9654;52.302;8.120;2023-03-14T15:18:12;11.10;;;2.27;;
19043;SDS011;9654;52.302;8.120;2023-03-14T15:20:42;6.47;;;1.50;;
19043;SDS011;9654;52.302;8.120;2023-03-14T15:23:09;9.87;;;1.70;;
19043;SDS011;9654;52.302;8.120;2023-03-14T15:25:37;9.97;;;1.77;;
19043;SDS011;9654;52.302;8.120;2023-03-14T15:28:08;10.07;;;1.67;;
19043;SDS011;9654;52.302;8.120;2023-03-14T15:30:39;7.30;;;1.47;;
19043;SDS011;9654;52.302;8.120;2023-03-14T15:33:06;6.20;;;1.47;;